Time;durP1;ratioP1;P1;durP2;ratioP2;P2;SDS_P1;SDS_P2;PMS_P1;PMS_P2;Temp;Humidity;BMP_temperature;BMP_pressure;BME280_temperature;BME280_humidity;BME280_pressure;Samples;Min_cycle;Max_cycle;Signal;HPM_P1;HPM_P2
2021/08/29 00:01:08;;;;;;;4.30;3.83;;;12.00;99.90;;;;;;5058398;28;20634;-80
2021/08/29 00:03:35;;;;;;;4.13;3.83;;;12.00;99.90;;;;;;5058902;28;20803;-79
2021/08/29 00:06:02;;;;;;;4.23;3.73;;;11.90;99.90;;;;;;5052014;28;20646;-79
2021/08/29 00:08:29;;;;;;;4.90;4.40;;;12.00;99.90;;;;;;5063134;28;20610;-79
2021/08/29 00:10:57;;;;;;;5.47;4.67;;;12.00;99.90;;;;;;5062010;28;20630;-79
2021/08/29 00:13:24;;;;;;;4.50;4.10;;;12.00;99.90;;;;;;5058690;28;20628;-79
2021/08/29 00:15:52;;;;;;;4.93;4.53;;;12.00;99.90;;;;;;5052603;28;20620;-80
2021/08/29 00:18:19;;;;;;;4.40;4.00;;;12.00;99.90;;;;;;5063640;28;20619;-79
2021/08/29 00:20:46;;;;;;;4.33;3.93;;;12.00;99.90;;;;;;5070690;28;20623;-80
2021/08/29 00:23:14;;;;;;;4.97;4.47;;;12.00;99.90;;;;;;5061498;28;20620;-79
2021/08/29 00:25:41;;;;;;;4.27;3.87;;;12.10;99.90;;;;;;5056822;28;20635;-80
2021/08/29 00:28:08;;;;;;;4.90;4.20;;;12.10;99.90;;;;;;5060102;28;20675;-79
2021/08/29 00:30:35;;;;;;;4.63;4.23;;;12.10;99.90;;;;;;5051722;28;20639;-80
2021/08/29 00:33:03;;;;;;;4.70;4.30;;;12.10;99.90;;;;;;5056517;28;20630;-79
2021/08/29 00:35:30;;;;;;;6.73;4.30;;;12.20;99.90;;;;;;5079728;28;20646;-79
2021/08/29 00:37:57;;;;;;;5.17;4.60;;;12.10;99.90;;;;;;5052798;28;20624;-79
2021/08/29 00:40:26;;;;;;;5.03;4.53;;;12.20;99.90;;;;;;5056536;28;20624;-79
2021/08/29 00:42:53;;;;;;;6.83;5.70;;;12.20;99.90;;;;;;5069432;28;20968;-79
2021/08/29 00:45:21;;;;;;;5.10;4.33;;;12.20;99.90;;;;;;5064306;28;20632;-79
2021/08/29 00:47:48;;;;;;;6.33;4.73;;;12.20;99.90;;;;;;5071199;28;20746;-79
2021/08/29 00:50:17;;;;;;;4.73;4.33;;;12.30;99.90;;;;;;5061072;28;20624;-79
2021/08/29 00:52:44;;;;;;;4.63;4.23;;;12.30;99.90;;;;;;5050731;28;20978;-79
2021/08/29 00:55:12;;;;;;;5.77;4.77;;;12.30;99.90;;;;;;5059268;28;20939;-79
2021/08/29 00:57:40;;;;;;;5.13;4.70;;;12.30;99.90;;;;;;5071043;28;20635;-79
2021/08/29 01:00:10;;;;;;;4.77;4.37;;;12.30;99.90;;;;;;5069157;28;21215;-79
2021/08/29 01:02:38;;;;;;;4.60;4.20;;;12.30;99.90;;;;;;5064192;28;20650;-79
2021/08/29 01:05:09;;;;;;;4.47;3.97;;;12.40;99.90;;;;;;5062220;28;20632;-79
2021/08/29 01:07:44;;;;;;;5.03;3.93;;;12.40;99.90;;;;;;5055897;28;20647;-79
2021/08/29 01:10:18;;;;;;;5.73;5.17;;;12.40;99.90;;;;;;5070839;28;21200;-79
2021/08/29 01:12:49;;;;;;;5.07;4.57;;;12.40;99.90;;;;;;5054780;28;20647;-79
2021/08/29 01:15:21;;;;;;;5.20;4.70;;;12.50;99.90;;;;;;5055192;28;20985;-79
2021/08/29 01:17:51;;;;;;;5.17;4.60;;;12.40;99.90;;;;;;5064355;28;20643;-79
2021/08/29 01:20:23;;;;;;;5.53;5.00;;;12.40;99.90;;;;;;5069605;28;20631;-79
2021/08/29 01:22:53;;;;;;;6.57;5.13;;;12.50;99.90;;;;;;5070292;28;20684;-80
2021/08/29 01:25:25;;;;;;;4.97;4.47;;;12.50;99.90;;;;;;5063857;28;20738;-79
2021/08/29 01:28:00;;;;;;;5.57;4.80;;;12.40;99.90;;;;;;5056713;28;21228;-79
2021/08/29 01:30:31;;;;;;;4.97;4.57;;;12.40;99.90;;;;;;5059359;28;20631;-79
2021/08/29 01:32:59;;;;;;;5.00;4.50;;;12.40;99.90;;;;;;5050882;28;20656;-79
2021/08/29 01:35:28;;;;;;;8.90;4.70;;;12.40;99.90;;;;;;5050701;28;20625;-79
2021/08/29 01:37:57;;;;;;;5.80;4.63;;;12.40;99.90;;;;;;5051717;28;20638;-80
2021/08/29 01:40:26;;;;;;;5.27;4.70;;;12.40;99.90;;;;;;5050590;28;20651;-80
2021/08/29 01:42:55;;;;;;;5.37;4.87;;;12.40;99.90;;;;;;5062217;28;20666;-80
2021/08/29 01:45:22;;;;;;;6.97;4.70;;;12.50;99.90;;;;;;5050844;28;20631;-80
2021/08/29 01:47:55;;;;;;;5.80;5.00;;;12.50;99.90;;;;;;5062695;28;20669;-80
2021/08/29 01:50:24;;;;;;;4.77;4.33;;;12.50;99.90;;;;;;5057965;28;20732;-80
2021/08/29 01:52:53;;;;;;;5.53;5.03;;;12.50;99.90;;;;;;5051762;28;20634;-80
2021/08/29 01:55:22;;;;;;;5.77;4.70;;;12.50;99.90;;;;;;5050471;28;20623;-80
2021/08/29 01:57:51;;;;;;;5.00;4.60;;;12.50;99.90;;;;;;5049451;28;20713;-80
2021/08/29 02:00:21;;;;;;;6.53;4.83;;;12.40;99.90;;;;;;5050188;28;20628;-80
2021/08/29 02:02:49;;;;;;;5.33;4.83;;;12.50;99.90;;;;;;5049377;28;21215;-80
2021/08/29 02:05:18;;;;;;;4.73;4.33;;;12.50;99.90;;;;;;5069018;28;21001;-80
2021/08/29 02:07:50;;;;;;;4.97;4.53;;;12.50;99.90;;;;;;5070122;28;21001;-80
2021/08/29 02:10:24;;;;;;;5.37;4.60;;;12.50;99.90;;;;;;5054576;28;21192;-79
2021/08/29 02:12:58;;;;;;;6.80;5.37;;;12.60;99.90;;;;;;5051802;28;20652;-80
2021/08/29 02:15:30;;;;;;;4.80;4.27;;;12.60;99.90;;;;;;5054539;28;20640;-80
2021/08/29 02:18:01;;;;;;;5.37;4.90;;;12.50;99.90;;;;;;5068312;28;21180;-80
2021/08/29 02:20:30;;;;;;;5.70;5.20;;;12.50;99.90;;;;;;5069408;28;20657;-79
2021/08/29 02:22:59;;;;;;;8.47;5.70;;;12.50;99.90;;;;;;5058346;28;21296;-79
2021/08/29 02:25:27;;;;;;;5.87;5.27;;;12.50;99.90;;;;;;5050889;28;20637;-79
2021/08/29 02:27:55;;;;;;;5.50;5.00;;;12.50;99.90;;;;;;5065063;28;20655;-79
2021/08/29 02:30:23;;;;;;;5.00;4.60;;;12.50;99.90;;;;;;5068827;28;20719;-79
2021/08/29 02:32:52;;;;;;;5.60;4.87;;;12.50;99.90;;;;;;5051198;28;20630;-79
2021/08/29 02:35:22;;;;;;;5.60;4.53;;;12.50;99.90;;;;;;5055795;28;20641;-79
2021/08/29 02:37:51;;;;;;;5.00;4.50;;;12.50;99.90;;;;;;5054247;28;20651;-79
2021/08/29 02:40:21;;;;;;;6.03;4.87;;;12.50;99.90;;;;;;5064901;28;20632;-79
2021/08/29 02:42:50;;;;;;;6.17;5.57;;;12.50;99.90;;;;;;5056440;28;20665;-79
2021/08/29 02:45:19;;;;;;;5.00;3.90;;;12.50;99.90;;;;;;5049741;28;20740;-79
2021/08/29 02:47:46;;;;;;;5.57;5.07;;;12.50;99.90;;;;;;5049121;28;21018;-79
2021/08/29 02:50:15;;;;;;;6.07;4.90;;;12.50;99.90;;;;;;5054735;28;20623;-79
2021/08/29 02:52:44;;;;;;;5.30;4.80;;;12.60;99.90;;;;;;5048912;28;21184;-80
2021/08/29 02:55:16;;;;;;;5.03;4.53;;;12.60;99.90;;;;;;5068246;28;20737;-80
2021/08/29 02:57:48;;;;;;;4.97;4.57;;;12.50;99.90;;;;;;5067276;28;20640;-80
2021/08/29 03:00:17;;;;;;;5.40;4.83;;;12.60;99.90;;;;;;5054244;28;20624;-80
2021/08/29 03:02:47;;;;;;;6.20;4.90;;;12.50;99.90;;;;;;5069043;28;20616;-79
2021/08/29 03:05:16;;;;;;;6.73;4.40;;;12.60;99.90;;;;;;5069561;28;21295;-80
2021/08/29 03:07:48;;;;;;;5.80;5.20;;;12.50;99.90;;;;;;5052815;28;20642;-80
2021/08/29 03:10:26;;;;;;;5.00;4.60;;;12.50;99.90;;;;;;5053105;28;20754;-80
2021/08/29 03:12:59;;;;;;;5.57;5.07;;;12.50;99.90;;;;;;5066872;28;20624;-80
2021/08/29 03:15:30;;;;;;;5.67;5.17;;;12.50;99.90;;;;;;5066541;28;20650;-80
2021/08/29 03:18:01;;;;;;;6.07;5.47;;;12.50;99.90;;;;;;5065212;28;20799;-80
2021/08/29 03:20:35;;;;;;;5.30;4.80;;;12.50;99.90;;;;;;5056570;28;20629;-80
2021/08/29 03:23:06;;;;;;;6.50;4.73;;;12.50;99.90;;;;;;5055925;28;20640;-80
2021/08/29 03:25:38;;;;;;;6.20;4.87;;;12.40;99.90;;;;;;5067973;28;20623;-79
2021/08/29 03:28:08;;;;;;;5.43;4.73;;;12.40;99.90;;;;;;5067237;28;20683;-80
2021/08/29 03:30:37;;;;;;;6.53;5.23;;;12.50;99.90;;;;;;5056178;28;20977;-79
2021/08/29 03:33:10;;;;;;;6.03;4.97;;;12.50;99.90;;;;;;5060546;28;20646;-80
2021/08/29 03:35:40;;;;;;;6.77;6.07;;;12.40;99.90;;;;;;5083225;28;20746;-80
2021/08/29 03:38:10;;;;;;;6.13;5.53;;;12.50;99.90;;;;;;5071730;28;20655;-80
2021/08/29 03:40:41;;;;;;;8.73;6.07;;;12.50;99.90;;;;;;5072513;28;20648;-80
2021/08/29 03:43:14;;;;;;;6.00;5.40;;;12.50;99.90;;;;;;5065336;28;20635;-80
2021/08/29 03:45:44;;;;;;;5.43;4.90;;;12.50;99.90;;;;;;5052702;28;20649;-80
2021/08/29 03:48:14;;;;;;;6.00;5.40;;;12.50;99.90;;;;;;5054813;28;20751;-80
2021/08/29 03:50:47;;;;;;;5.60;5.00;;;12.50;99.90;;;;;;5062667;28;20644;-80
2021/08/29 03:53:26;;;;;;;5.77;5.20;;;12.50;99.90;;;;;;5063994;28;20824;-80
2021/08/29 03:56:10;;;;;;;6.30;5.40;;;12.50;99.90;;;;;;5069587;28;20626;-80
2021/08/29 03:58:41;;;;;;;6.50;5.80;;;12.50;99.90;;;;;;5067508;28;20619;-80
2021/08/29 04:01:12;;;;;;;6.37;5.47;;;12.50;99.90;;;;;;5067528;28;20734;-80
2021/08/29 04:03:41;;;;;;;5.53;5.03;;;12.50;99.90;;;;;;5057061;28;20628;-80
2021/08/29 04:06:14;;;;;;;6.27;5.20;;;12.40;99.90;;;;;;5071699;28;21059;-80
2021/08/29 04:08:46;;;;;;;8.70;5.60;;;12.50;99.90;;;;;;5067195;28;20987;-80
2021/08/29 04:11:22;;;;;;;9.40;6.83;;;12.60;99.90;;;;;;5056987;28;21015;-80
2021/08/29 04:13:52;;;;;;;6.50;5.63;;;12.70;99.90;;;;;;5057705;28;20974;-80
2021/08/29 04:16:21;;;;;;;5.70;5.20;;;12.60;99.90;;;;;;5051630;28;20698;-80
2021/08/29 04:18:49;;;;;;;6.40;5.60;;;12.60;99.90;;;;;;5060715;28;20722;-80
2021/08/29 04:21:20;;;;;;;6.37;5.70;;;12.60;99.90;;;;;;5070335;28;21230;-80
2021/08/29 04:23:48;;;;;;;11.43;6.13;;;12.60;99.90;;;;;;5060663;28;20636;-80
2021/08/29 04:26:17;;;;;;;6.97;5.97;;;12.60;99.90;;;;;;5061502;28;20969;-80
2021/08/29 04:28:45;;;;;;;6.63;6.00;;;12.70;99.90;;;;;;5067642;28;21293;-80
2021/08/29 04:31:16;;;;;;;8.23;6.10;;;12.70;99.90;;;;;;5051416;28;21010;-80
2021/08/29 04:33:43;;;;;;;8.33;6.60;;;12.70;99.90;;;;;;5065359;28;20629;-80
2021/08/29 04:36:11;;;;;;;7.53;6.43;;;12.70;99.90;;;;;;5069429;28;20725;-80
2021/08/29 04:38:39;;;;;;;5.77;5.17;;;12.70;99.90;;;;;;5052001;28;20637;-80
2021/08/29 04:41:07;;;;;;;6.07;5.47;;;12.70;99.90;;;;;;5051421;28;20663;-80
2021/08/29 04:43:36;;;;;;;6.10;5.60;;;12.70;99.90;;;;;;5068687;28;21106;-80
2021/08/29 04:46:05;;;;;;;7.03;6.33;;;12.60;99.90;;;;;;5064243;28;20694;-80
2021/08/29 04:48:33;;;;;;;7.00;6.30;;;12.70;99.90;;;;;;5052384;28;20714;-81
2021/08/29 04:51:01;;;;;;;7.80;6.27;;;12.70;99.90;;;;;;5057950;28;20633;-80
2021/08/29 04:53:30;;;;;;;6.87;5.97;;;12.70;99.90;;;;;;5050681;28;20621;-81
2021/08/29 04:55:58;;;;;;;9.80;6.20;;;12.70;99.90;;;;;;5053012;28;20642;-81
2021/08/29 04:58:26;;;;;;;6.53;5.93;;;12.70;99.90;;;;;;5051260;28;21282;-81
2021/08/29 05:00:55;;;;;;;7.83;6.10;;;12.70;99.90;;;;;;5055832;28;20664;-81
2021/08/29 05:03:24;;;;;;;7.30;6.60;;;12.70;99.90;;;;;;5070624;28;20965;-81
2021/08/29 05:05:52;;;;;;;7.47;6.77;;;12.70;99.90;;;;;;5064977;28;20624;-80
2021/08/29 05:08:20;;;;;;;10.00;6.40;;;12.60;99.90;;;;;;5064561;28;20663;-81
2021/08/29 05:10:49;;;;;;;7.03;5.93;;;12.70;99.90;;;;;;5069879;28;21219;-80
2021/08/29 05:13:16;;;;;;;6.80;6.20;;;12.80;99.90;;;;;;5069896;28;20734;-80
2021/08/29 05:15:44;;;;;;;10.37;7.03;;;12.70;99.90;;;;;;5055442;28;20627;-80
2021/08/29 05:18:13;;;;;;;10.10;8.67;;;12.60;99.90;;;;;;5067779;28;20635;-79
2021/08/29 05:20:41;;;;;;;8.47;7.50;;;12.60;99.90;;;;;;5053758;28;20651;-79
2021/08/29 05:23:10;;;;;;;11.03;8.17;;;12.60;99.90;;;;;;5061490;28;20635;-79
2021/08/29 05:25:39;;;;;;;8.40;7.60;;;12.40;99.90;;;;;;5058061;28;20631;-79
2021/08/29 05:28:06;;;;;;;7.90;7.10;;;12.40;99.90;;;;;;5069507;28;21237;-79
2021/08/29 05:30:34;;;;;;;7.33;6.67;;;12.30;99.90;;;;;;5066389;28;20636;-78
2021/08/29 05:33:02;;;;;;;7.03;6.33;;;12.40;99.90;;;;;;5049856;28;20681;-79
2021/08/29 05:35:31;;;;;;;11.23;6.93;;;12.40;99.90;;;;;;5066373;28;20658;-78
2021/08/29 05:38:00;;;;;;;8.37;5.97;;;12.30;99.90;;;;;;5051008;28;20667;-78
2021/08/29 05:40:29;;;;;;;6.37;5.67;;;12.40;99.90;;;;;;5057771;28;20624;-79
2021/08/29 05:42:56;;;;;;;7.30;5.87;;;12.40;99.90;;;;;;5061950;28;21007;-79
2021/08/29 05:45:24;;;;;;;6.63;5.90;;;12.40;99.90;;;;;;5049244;28;20627;-79
2021/08/29 05:47:52;;;;;;;6.80;6.20;;;12.40;99.90;;;;;;5064444;28;20650;-79
2021/08/29 05:50:20;;;;;;;6.33;5.67;;;12.40;99.90;;;;;;5055519;28;20626;-79
2021/08/29 05:52:49;;;;;;;5.80;4.90;;;12.30;99.90;;;;;;5058336;28;20721;-79
2021/08/29 05:55:17;;;;;;;5.73;5.17;;;12.30;99.90;;;;;;5068802;28;21014;-79
2021/08/29 05:57:44;;;;;;;6.30;5.70;;;12.40;99.90;;;;;;5057016;28;20631;-79
2021/08/29 06:00:13;;;;;;;6.40;5.30;;;12.40;99.90;;;;;;5069117;28;20631;-79
2021/08/29 06:02:42;;;;;;;7.30;5.47;;;12.40;99.90;;;;;;5049398;28;20622;-79
2021/08/29 06:05:10;;;;;;;5.27;4.77;;;12.30;99.90;;;;;;5051235;28;20989;-79
2021/08/29 06:07:38;;;;;;;4.80;4.20;;;12.40;99.90;;;;;;5069614;28;20677;-80
2021/08/29 06:10:09;;;;;;;6.60;6.00;;;12.50;99.90;;;;;;5069145;28;20734;-80
2021/08/29 06:12:36;;;;;;;4.83;4.33;;;12.60;99.90;;;;;;5049619;28;20651;-80
2021/08/29 06:15:05;;;;;;;6.07;5.47;;;12.60;99.90;;;;;;5050700;28;20627;-80
2021/08/29 06:17:32;;;;;;;6.53;4.50;;;12.60;99.90;;;;;;5054846;28;20626;-80
2021/08/29 06:20:00;;;;;;;6.20;5.60;;;12.60;99.90;;;;;;5067362;28;20766;-79
2021/08/29 06:22:27;;;;;;;5.30;4.80;;;12.70;99.90;;;;;;5057340;28;20634;-79
2021/08/29 06:24:54;;;;;;;4.17;3.70;;;12.70;99.90;;;;;;5062703;28;20628;-79
2021/08/29 06:27:23;;;;;;;4.83;4.40;;;12.70;99.90;;;;;;5069674;28;20625;-79
2021/08/29 06:29:51;;;;;;;6.70;3.07;;;12.70;99.90;;;;;;5069906;28;21195;-79
2021/08/29 06:32:17;;;;;;;4.30;3.90;;;12.70;99.90;;;;;;5064571;28;20630;-79
2021/08/29 06:34:44;;;;;;;3.83;3.50;;;12.70;99.90;;;;;;5056953;28;20628;-79
2021/08/29 06:37:11;;;;;;;3.73;3.37;;;12.70;99.90;;;;;;5051999;28;20661;-81
2021/08/29 06:39:38;;;;;;;3.87;3.57;;;12.70;99.90;;;;;;5046536;28;20680;-80
2021/08/29 06:42:05;;;;;;;3.53;3.23;;;12.80;99.90;;;;;;5066684;28;20986;-80
2021/08/29 06:44:34;;;;;;;3.23;2.93;;;12.80;99.90;;;;;;5059065;28;21368;-81
2021/08/29 06:47:01;;;;;;;3.00;2.80;;;12.80;99.90;;;;;;5061485;28;20720;-81
2021/08/29 06:49:30;;;;;;;2.90;2.70;;;12.90;99.90;;;;;;5068644;28;20662;-80
2021/08/29 06:51:57;;;;;;;3.27;2.97;;;12.90;99.90;;;;;;5068847;28;20652;-80
2021/08/29 06:54:24;;;;;;;4.97;3.03;;;13.00;99.90;;;;;;5065001;28;20632;-81
2021/08/29 06:56:51;;;;;;;3.20;2.80;;;12.90;99.90;;;;;;5064234;28;20792;-80
2021/08/29 06:59:17;;;;;;;2.57;2.37;;;12.90;99.90;;;;;;5057731;28;20638;-81
2021/08/29 07:01:46;;;;;;;3.33;3.03;;;12.90;99.90;;;;;;5062566;28;20637;-80
2021/08/29 07:04:13;;;;;;;3.97;2.60;;;12.90;99.90;;;;;;5060604;28;20633;-80
2021/08/29 07:06:40;;;;;;;3.30;3.00;;;12.90;99.90;;;;;;5072586;28;20627;-80
2021/08/29 07:09:06;;;;;;;3.23;2.93;;;12.90;99.90;;;;;;5066457;28;21267;-80
2021/08/29 07:11:33;;;;;;;3.20;2.90;;;12.90;99.90;;;;;;5072204;28;20607;-81
2021/08/29 07:14:00;;;;;;;3.30;2.80;;;12.90;99.90;;;;;;5067486;28;20628;-81
2021/08/29 07:16:27;;;;;;;2.80;2.50;;;13.00;99.90;;;;;;5072948;28;20611;-81
2021/08/29 07:18:57;;;;;;;3.27;2.40;;;13.00;99.90;;;;;;5064224;28;20707;-81
2021/08/29 07:21:30;;;;;;;2.57;2.37;;;13.10;99.90;;;;;;5073444;28;20634;-82
2021/08/29 07:23:57;;;;;;;2.57;2.37;;;13.20;99.90;;;;;;5049234;28;21075;-81
2021/08/29 07:26:24;;;;;;;2.43;2.23;;;13.20;99.90;;;;;;5059807;28;21036;-80
2021/08/29 07:28:51;;;;;;;2.23;2.03;;;13.20;99.90;;;;;;5064839;28;21075;-81
2021/08/29 07:31:18;;;;;;;2.10;2.00;;;13.10;99.90;;;;;;5063238;28;20617;-80
2021/08/29 07:33:45;;;;;;;1.70;1.60;;;13.00;99.90;;;;;;5067943;28;20620;-80
2021/08/29 07:36:13;;;;;;;1.67;1.57;;;13.10;99.90;;;;;;5065449;28;20756;-80
2021/08/29 07:38:40;;;;;;;2.87;2.60;;;13.30;99.90;;;;;;5045611;28;20702;-82
2021/08/29 07:41:07;;;;;;;2.70;2.50;;;13.20;99.90;;;;;;5035526;28;20934;-81
2021/08/29 07:43:34;;;;;;;2.07;1.97;;;13.30;99.90;;;;;;5053002;28;20633;-82
2021/08/29 07:46:00;;;;;;;1.50;1.40;;;13.30;99.90;;;;;;5060643;28;20628;-81
2021/08/29 07:48:28;;;;;;;2.10;1.90;;;13.30;99.90;;;;;;5060956;28;21237;-82
2021/08/29 07:50:54;;;;;;;2.00;1.80;;;13.30;99.90;;;;;;5056200;28;21087;-82
2021/08/29 07:53:23;;;;;;;1.70;1.60;;;13.40;99.90;;;;;;5061888;28;20712;-83
2021/08/29 07:55:50;;;;;;;1.53;1.43;;;13.50;99.90;;;;;;5059605;28;20685;-82
2021/08/29 07:58:18;;;;;;;1.70;1.60;;;13.40;99.90;;;;;;5070753;28;20625;-82
2021/08/29 08:00:45;;;;;;;1.70;1.37;;;13.40;99.90;;;;;;5069860;28;21209;-82
2021/08/29 08:03:12;;;;;;;1.67;1.57;;;13.50;99.90;;;;;;5070906;28;20617;-83
2021/08/29 08:05:39;;;;;;;1.90;1.80;;;13.50;99.90;;;;;;5071390;28;20671;-81
2021/08/29 08:08:06;;;;;;;3.93;2.30;;;13.60;99.90;;;;;;5071468;28;20717;-81
2021/08/29 08:10:34;;;;;;;3.10;2.80;;;13.40;99.90;;;;;;5070991;28;20667;-81
2021/08/29 08:13:01;;;;;;;1.70;1.60;;;13.40;99.90;;;;;;5071488;28;20727;-81
2021/08/29 08:15:28;;;;;;;1.90;1.80;;;13.40;99.90;;;;;;5071958;28;21235;-81
2021/08/29 08:17:55;;;;;;;1.90;1.80;;;13.40;99.90;;;;;;5071935;28;20727;-81
2021/08/29 08:20:22;;;;;;;2.43;2.30;;;13.50;99.90;;;;;;5071987;28;20621;-81
2021/08/29 08:22:49;;;;;;;1.53;1.43;;;13.60;99.90;;;;;;5070875;28;21177;-81
2021/08/29 08:25:16;;;;;;;1.77;1.67;;;13.60;99.90;;;;;;5071411;28;20674;-80
2021/08/29 08:27:44;;;;;;;1.23;1.17;;;13.60;99.90;;;;;;5071928;28;20674;-81
2021/08/29 08:30:13;;;;;;;1.60;1.20;;;13.60;99.90;;;;;;5071959;28;20657;-80
2021/08/29 08:32:40;;;;;;;1.23;1.13;;;13.60;99.90;;;;;;5071155;28;20664;-81
2021/08/29 08:35:07;;;;;;;1.33;1.27;;;13.60;99.90;;;;;;5071579;28;20679;-81
2021/08/29 08:37:34;;;;;;;1.50;1.40;;;13.50;99.90;;;;;;5071313;28;20678;-82
2021/08/29 08:40:01;;;;;;;1.70;1.60;;;13.60;99.90;;;;;;5071637;28;20733;-81
2021/08/29 08:42:28;;;;;;;1.63;1.53;;;13.70;99.90;;;;;;5070832;28;21240;-81
2021/08/29 08:44:56;;;;;;;1.93;1.53;;;13.70;99.90;;;;;;5071232;28;20622;-81
2021/08/29 08:47:24;;;;;;;5.57;1.93;;;13.80;99.90;;;;;;5071363;28;20613;-81
2021/08/29 08:49:56;;;;;;;2.77;2.57;;;13.80;99.90;;;;;;5071112;28;20689;-81
2021/08/29 08:52:25;;;;;;;1.50;1.40;;;13.80;99.90;;;;;;5070081;28;21218;-81
2021/08/29 08:54:54;;;;;;;2.60;1.20;;;13.90;99.90;;;;;;5071351;28;20695;-82
2021/08/29 08:57:21;;;;;;;1.57;1.30;;;13.80;99.90;;;;;;5070678;28;20610;-82
2021/08/29 08:59:49;;;;;;;1.67;1.57;;;13.90;99.90;;;;;;5065718;28;20646;-83
2021/08/29 09:02:19;;;;;;;2.00;1.80;;;14.00;99.90;;;;;;5070696;28;20640;-83
2021/08/29 09:04:46;;;;;;;4.70;2.27;;;14.10;99.90;;;;;;5070083;28;20605;-83
2021/08/29 09:07:13;;;;;;;2.67;2.40;;;14.20;99.90;;;;;;5071421;28;20986;-83
2021/08/29 09:09:40;;;;;;;3.40;3.10;;;14.10;99.90;;;;;;5070967;28;20704;-83
2021/08/29 09:12:08;;;;;;;3.20;2.90;;;14.20;99.90;;;;;;5069144;28;20624;-84
2021/08/29 09:14:40;;;;;;;4.40;3.20;;;14.20;99.90;;;;;;5070047;28;20702;-83
2021/08/29 09:17:25;;;;;;;3.47;3.17;;;14.10;99.90;;;;;;5070606;28;20617;-84
2021/08/29 09:19:52;;;;;;;3.43;3.13;;;14.10;99.90;;;;;;5070768;28;20640;-84
2021/08/29 09:22:26;;;;;;;4.00;3.67;;;14.10;99.90;;;;;;5064065;28;20641;-84
2021/08/29 09:24:53;;;;;;;3.80;3.43;;;14.30;99.90;;;;;;5050828;28;20668;-83
2021/08/29 09:27:23;;;;;;;3.70;3.40;;;14.30;99.90;;;;;;5063759;28;20621;-84
2021/08/29 09:29:51;;;;;;;3.17;2.90;;;14.30;99.90;;;;;;5069976;28;20708;-84
2021/08/29 09:32:20;;;;;;;3.50;3.20;;;14.20;99.90;;;;;;5070609;28;20657;-84
2021/08/29 09:34:58;;;;;;;3.60;3.30;;;14.30;99.90;;;;;;5070417;28;20610;-84
2021/08/29 09:37:25;;;;;;;3.87;3.47;;;14.20;99.90;;;;;;5070525;28;20609;-84
2021/08/29 09:40:12;;;;;;;5.10;4.60;;;14.30;99.90;;;;;;5070679;28;20622;-84
2021/08/29 09:42:41;;;;;;;4.77;4.27;;;14.20;99.90;;;;;;5070909;28;20617;-84
2021/08/29 09:45:08;;;;;;;3.97;3.67;;;14.20;99.90;;;;;;5070819;28;20641;-84
2021/08/29 09:47:36;;;;;;;4.03;3.73;;;14.00;99.90;;;;;;5068401;28;20636;-83
2021/08/29 09:50:07;;;;;;;4.93;4.43;;;14.10;99.90;;;;;;5070319;28;20649;-82
2021/08/29 09:52:34;;;;;;;5.40;4.50;;;14.10;99.90;;;;;;5070167;28;20623;-83
2021/08/29 09:55:01;;;;;;;5.03;4.33;;;14.20;99.90;;;;;;5070430;28;21178;-83
2021/08/29 09:57:28;;;;;;;4.90;4.50;;;14.30;99.90;;;;;;5069881;28;20613;-83
2021/08/29 09:59:55;;;;;;;6.17;4.67;;;14.40;99.90;;;;;;5069864;28;20622;-82
2021/08/29 10:02:25;;;;;;;5.33;4.83;;;14.50;99.90;;;;;;5070046;28;20614;-83
2021/08/29 10:05:13;;;;;;;5.00;4.20;;;14.40;99.90;;;;;;5070386;28;20675;-84
2021/08/29 10:07:57;;;;;;;5.30;4.87;;;14.50;99.90;;;;;;5070457;28;20635;-84
2021/08/29 10:10:26;;;;;;;6.83;5.20;;;14.50;99.90;;;;;;5060558;28;20764;-83
2021/08/29 10:12:53;;;;;;;4.93;4.53;;;14.50;99.90;;;;;;5053327;28;20656;-84
2021/08/29 10:15:20;;;;;;;5.00;4.60;;;14.50;99.90;;;;;;5070168;28;20671;-83
2021/08/29 10:17:50;;;;;;;4.77;4.37;;;14.60;99.90;;;;;;5073083;28;20974;-84
2021/08/29 10:20:21;;;;;;;5.53;5.03;;;14.70;99.90;;;;;;5074658;28;20625;-82
2021/08/29 10:22:49;;;;;;;5.30;4.57;;;14.70;99.90;;;;;;5074224;28;20602;-84
2021/08/29 10:25:18;;;;;;;4.30;3.97;;;14.70;99.90;;;;;;5074303;28;20626;-83
2021/08/29 10:27:47;;;;;;;5.80;5.27;;;14.80;99.90;;;;;;5072100;28;20624;-84
2021/08/29 10:30:15;;;;;;;5.10;4.60;;;14.90;99.90;;;;;;5061856;28;20657;-83
2021/08/29 10:32:45;;;;;;;5.33;4.93;;;14.90;99.90;;;;;;5072053;28;21262;-83
2021/08/29 10:35:14;;;;;;;4.70;4.30;;;14.90;99.90;;;;;;5061475;28;20622;-82
2021/08/29 10:37:44;;;;;;;9.23;7.03;;;14.90;99.90;;;;;;5053856;28;20672;-83
2021/08/29 10:40:13;;;;;;;4.40;4.10;;;14.90;99.90;;;;;;5053948;28;20657;-83
2021/08/29 10:42:42;;;;;;;6.00;5.50;;;14.80;99.90;;;;;;5052818;28;20610;-82
2021/08/29 10:45:10;;;;;;;4.23;3.83;;;14.80;99.90;;;;;;5053922;28;20749;-82
2021/08/29 10:47:40;;;;;;;4.93;4.53;;;14.80;99.90;;;;;;5053633;28;20676;-82
2021/08/29 10:50:09;;;;;;;5.33;4.90;;;14.80;99.90;;;;;;5053730;28;21287;-82
2021/08/29 10:52:38;;;;;;;5.13;4.37;;;14.60;99.90;;;;;;5053501;28;20614;-82
2021/08/29 10:55:09;;;;;;;5.30;4.80;;;14.60;99.90;;;;;;5053573;28;20645;-83
2021/08/29 10:57:38;;;;;;;5.20;4.80;;;14.60;99.90;;;;;;5053253;28;20705;-82
2021/08/29 11:00:10;;;;;;;5.87;5.37;;;14.70;99.90;;;;;;5053719;28;20618;-83
2021/08/29 11:02:39;;;;;;;6.30;5.27;;;14.70;99.90;;;;;;5053211;28;20679;-82
2021/08/29 11:05:07;;;;;;;5.60;5.10;;;14.80;99.90;;;;;;5053296;28;20977;-83
2021/08/29 11:07:40;;;;;;;4.53;3.87;;;14.90;99.90;;;;;;5053039;28;20630;-83
2021/08/29 11:10:11;;;;;;;5.10;4.30;;;14.80;99.90;;;;;;5053450;28;20700;-82
2021/08/29 11:12:39;;;;;;;5.40;4.90;;;14.90;99.90;;;;;;5052779;28;20621;-82
2021/08/29 11:15:09;;;;;;;5.23;4.83;;;14.80;99.90;;;;;;5053371;28;21069;-82
2021/08/29 11:17:37;;;;;;;5.50;5.00;;;14.80;99.90;;;;;;5053096;28;20614;-82
2021/08/29 11:20:18;;;;;;;4.93;4.53;;;14.90;99.90;;;;;;5047166;28;20696;-82
2021/08/29 11:22:47;;;;;;;5.47;4.97;;;14.90;99.90;;;;;;5059959;28;20626;-82
2021/08/29 11:25:23;;;;;;;7.43;6.50;;;14.90;99.90;;;;;;5052765;28;20614;-83
2021/08/29 11:27:59;;;;;;;5.27;4.87;;;14.90;99.90;;;;;;5052767;28;20625;-82
2021/08/29 11:30:29;;;;;;;4.43;4.03;;;14.80;99.90;;;;;;5052963;28;20704;-83
2021/08/29 11:33:03;;;;;;;4.70;4.30;;;14.80;99.90;;;;;;5052453;28;21019;-82
2021/08/29 11:35:32;;;;;;;5.83;5.33;;;15.00;99.90;;;;;;5053352;28;20607;-82
2021/08/29 11:38:09;;;;;;;5.27;4.77;;;15.00;99.90;;;;;;5056614;28;20662;-83
2021/08/29 11:40:56;;;;;;;4.90;4.40;;;15.00;99.90;;;;;;5067320;28;20662;-83
2021/08/29 11:43:32;;;;;;;5.40;4.93;;;15.00;99.90;;;;;;5068373;28;20622;-83
2021/08/29 11:46:08;;;;;;;4.90;4.50;;;14.80;99.90;;;;;;5052820;28;20977;-84
2021/08/29 11:48:39;;;;;;;5.40;5.00;;;15.00;99.90;;;;;;5052756;28;20618;-84
2021/08/29 11:51:06;;;;;;;5.20;4.80;;;15.10;99.90;;;;;;5052273;28;20650;-84
2021/08/29 11:53:45;;;;;;;5.10;4.60;;;15.10;99.90;;;;;;5051863;28;20610;-84
2021/08/29 11:56:17;;;;;;;6.00;5.53;;;15.20;99.90;;;;;;5061424;28;20621;-83
2021/08/29 11:58:45;;;;;;;4.80;4.40;;;15.20;99.90;;;;;;5072521;28;21190;-84
2021/08/29 12:01:16;;;;;;;5.10;4.70;;;15.20;99.90;;;;;;5072175;28;21166;-84
2021/08/29 12:03:47;;;;;;;4.23;3.90;;;15.40;99.90;;;;;;5072134;28;20621;-84
2021/08/29 12:06:27;;;;;;;4.70;4.30;;;15.30;99.90;;;;;;5072154;28;20617;-84
2021/08/29 12:09:20;;;;;;;4.63;4.23;;;15.40;99.90;;;;;;5072309;28;21174;-84
2021/08/29 12:11:51;;;;;;;4.40;4.00;;;15.40;99.90;;;;;;5063073;28;20677;-85
2021/08/29 12:14:20;;;;;;;4.03;3.73;;;15.10;99.90;;;;;;5071744;28;20606;-85
2021/08/29 12:16:54;;;;;;;4.57;4.17;;;15.10;99.90;;;;;;5072410;28;21139;-85
2021/08/29 12:19:24;;;;;;;3.40;3.13;;;15.20;99.90;;;;;;5071983;28;21119;-85
2021/08/29 12:21:53;;;;;;;3.20;3.00;;;15.10;99.90;;;;;;5069069;28;20638;-84
2021/08/29 12:24:26;;;;;;;4.63;4.33;;;15.10;99.90;;;;;;5064302;28;20717;-84
2021/08/29 12:27:07;;;;;;;4.87;4.47;;;15.20;99.90;;;;;;5068136;28;21349;-84
2021/08/29 12:29:43;;;;;;;4.30;3.90;;;15.10;99.90;;;;;;5070034;28;21186;-84
2021/08/29 12:32:12;;;;;;;4.30;3.93;;;15.10;99.90;;;;;;5068096;28;20633;-84
2021/08/29 12:34:40;;;;;;;5.03;4.63;;;15.00;99.90;;;;;;5072246;28;20644;-83
2021/08/29 12:37:11;;;;;;;4.90;4.50;;;14.90;99.90;;;;;;5071454;28;20621;-84
2021/08/29 12:39:39;;;;;;;4.30;3.90;;;14.90;99.90;;;;;;5071268;28;20629;-82
2021/08/29 12:42:18;;;;;;;5.90;4.93;;;15.00;99.90;;;;;;5071699;28;20613;-84
2021/08/29 12:44:45;;;;;;;5.10;4.60;;;15.00;99.90;;;;;;5072135;28;20606;-84
2021/08/29 12:47:13;;;;;;;4.33;4.03;;;15.00;99.90;;;;;;5071993;28;20670;-84
2021/08/29 12:49:40;;;;;;;4.90;4.50;;;14.90;99.90;;;;;;5071248;28;20657;-84
2021/08/29 12:52:09;;;;;;;5.10;4.60;;;15.00;99.90;;;;;;5071334;28;20714;-84
2021/08/29 12:54:36;;;;;;;3.97;3.67;;;15.00;99.90;;;;;;5071687;28;20617;-84
2021/08/29 12:57:05;;;;;;;4.43;4.07;;;15.00;99.90;;;;;;5071506;28;20760;-83